G.bellini — IKGF — position and weather

sailwx.info

Track history (hours):
 
Tides and Currents Weather Stations Pressure Air Temp Water Temp Dewpoint Dewpoint Depression Visibility Wind Speed Wind Dir Waves Ship Positions

G.bellini

Last reported at 2016-Jun-29 16:12 UTC. Time now 2016-Jun-30 05:09 UTC.
Position N 42°49' E 010°27'.

Length 72 m; draft 3.3 m.

Type: Ship. MMSI: 247041900.

Date/timePositionNaut miles runAvg speedWind from/ knotsBaromVisibWave heightAir tempDewpointWater temp
2016-Jun-29 16:12N 42°49' E 010°27'3 1.0
2016-Jun-29 13:32N 42°51' E 010°29'1 0.4
2016-Jun-29 11:33N 42°51' E 010°29'1 0.6
2016-Jun-29 09:32N 42°52' E 010°30'5 5.2
2016-Jun-29 08:34N 42°56' E 010°34'2 1.0
2016-Jun-29 06:33N 42°54' E 010°32'2 1.9
2016-Jun-29 05:33N 42°56' E 010°34'8 0.6
2016-Jun-28 16:09N 42°49' E 010°27'8 7.9
2016-Jun-28 15:07N 42°56' E 010°33'2710.0
2016-Jun-28 12:23N 42°36' E 010°08'2 0.6
2016-Jun-28 09:31N 42°35' E 010°06'6 6.1
2016-Jun-28 08:30N 42°38' E 010°14'1313.7
2016-Jun-28 07:32N 42°47' E 010°27'8 0.4
2016-Jun-27 12:33N 42°54' E 010°32'2 0.1
2016-Jun-26 17:33N 42°52' E 010°30'0 0.3
2016-Jun-26 16:19N 42°52' E 010°30'3 4.0
2016-Jun-26 15:27N 42°49' E 010°27'8 6.5
2016-Jun-26 14:15N 42°56' E 010°33'3 1.7
2016-Jun-26 12:33N 42°53' E 010°31'3 2.3
2016-Jun-26 11:11N 42°56' E 010°33'4 0.2
2016-Jun-25 17:31N 42°53' E 010°30'4 1.9
2016-Jun-25 15:30N 42°49' E 010°27'8 6.0
2016-Jun-25 14:10N 42°56' E 010°33'3 2.0
2016-Jun-25 12:32N 42°53' E 010°31'3 2.5
2016-Jun-25 11:20N 42°56' E 010°33'3 1.8
2016-Jun-25 09:32N 42°53' E 010°31'3 3.4
2016-Jun-25 08:34N 42°56' E 010°34'2 0.9
2016-Jun-25 06:33N 42°54' E 010°32'1 0.7
2016-Jun-25 05:30N 42°55' E 010°33'3 0.3
2016-Jun-24 17:34N 42°52' E 010°31'1 1.1
2016-Jun-24 16:25N 42°53' E 010°32'5 5.4
2016-Jun-24 15:27N 42°49' E 010°27'8 6.5
2016-Jun-24 14:10N 42°56' E 010°33'1 0.7
2016-Jun-24 12:29N 42°55' E 010°33'1 0.7
2016-Jun-24 11:19N 42°56' E 010°33'5 2.8
2016-Jun-24 09:32N 42°52' E 010°29'5 5.2
2016-Jun-24 08:33N 42°56' E 010°34'8 0.5
2016-Jun-23 16:10N 42°49' E 010°27'2 0.9
2016-Jun-23 13:33N 42°51' E 010°29'5 3.9
2016-Jun-23 12:08N 42°56' E 010°33'610.0
2016-Jun-23 11:33N 42°51' E 010°29'2 0.8
2016-Jun-23 09:34N 42°52' E 010°30'4 4.5
2016-Jun-23 08:33N 42°56' E 010°34'0 0.1
2016-Jun-23 05:33N 42°56' E 010°34'8 0.6
2016-Jun-22 16:09N 42°49' E 010°27'8 7.8
2016-Jun-22 15:05N 42°56' E 010°33'5 3.0
2016-Jun-22 13:33N 42°52' E 010°30'1 0.2
2016-Jun-22 08:19N 42°53' E 010°31'4 1.9
2016-Jun-22 06:27N 42°56' E 010°34'0 0.4
2016-Jun-22 05:33N 42°55' E 010°34'8 0.6
2016-Jun-21 16:09N 42°49' E 010°27'812.1
2016-Jun-21 15:30N 42°56' E 010°33'7 7.5
2016-Jun-21 14:33N 42°50' E 010°27'20 9.5
2016-Jun-21 12:30N 42°36' E 010°08'2 2.0
2016-Jun-21 11:33N 42°35' E 010°06'0 0.0
2016-Jun-21 10:33N 42°35' E 010°06'0 0.0
2016-Jun-21 09:33N 42°35' E 010°06'6 5.9
2016-Jun-21 08:31N 42°38' E 010°13'1413.7
2016-Jun-21 07:33N 42°47' E 010°27'6 0.4
2016-Jun-20 17:33N 42°53' E 010°31'1 1.1
2016-Jun-20 16:26N 42°53' E 010°32'5 5.7
2016-Jun-20 15:29N 42°49' E 010°27'8 6.5
2016-Jun-20 14:16N 42°56' E 010°33'2 1.4
2016-Jun-20 12:33N 42°54' E 010°32'2 1.9
2016-Jun-20 11:16N 42°56' E 010°33'4 2.5
2016-Jun-20 09:33N 42°52' E 010°30'5 4.6
2016-Jun-20 08:33N 42°55' E 010°34'  
Track history (hours):
 
Tides and Currents Weather Stations Pressure Air Temp Water Temp Dewpoint Dewpoint Depression Visibility Wind Speed Wind Dir Waves Ship Positions

G.bellini

Last reported at 2016-Jun-29 16:12 UTC. Time now 2016-Jun-30 05:09 UTC.
Position N 42°49' E 010°27'.

Length 72 m; draft 3.3 m.

Type: Ship. MMSI: 247041900.

Date/timePositionNaut miles runAvg speedWind from/ knotsBaromVisibWave heightAir tempDewpointWater temp
2016-Jun-29 16:12N 42°49' E 010°27'3 1.0
2016-Jun-29 13:32N 42°51' E 010°29'1 0.4
2016-Jun-29 11:33N 42°51' E 010°29'1 0.6
2016-Jun-29 09:32N 42°52' E 010°30'5 5.2
2016-Jun-29 08:34N 42°56' E 010°34'2 1.0
2016-Jun-29 06:33N 42°54' E 010°32'2 1.9
2016-Jun-29 05:33N 42°56' E 010°34'8 0.6
2016-Jun-28 16:09N 42°49' E 010°27'8 7.9
2016-Jun-28 15:07N 42°56' E 010°33'2710.0
2016-Jun-28 12:23N 42°36' E 010°08'2 0.6
2016-Jun-28 09:31N 42°35' E 010°06'6 6.1
2016-Jun-28 08:30N 42°38' E 010°14'1313.7
2016-Jun-28 07:32N 42°47' E 010°27'8 0.4
2016-Jun-27 12:33N 42°54' E 010°32'2 0.1
2016-Jun-26 17:33N 42°52' E 010°30'0 0.3
2016-Jun-26 16:19N 42°52' E 010°30'3 4.0
2016-Jun-26 15:27N 42°49' E 010°27'8 6.5
2016-Jun-26 14:15N 42°56' E 010°33'3 1.7
2016-Jun-26 12:33N 42°53' E 010°31'3 2.3
2016-Jun-26 11:11N 42°56' E 010°33'4 0.2
2016-Jun-25 17:31N 42°53' E 010°30'4 1.9
2016-Jun-25 15:30N 42°49' E 010°27'8 6.0
2016-Jun-25 14:10N 42°56' E 010°33'3 2.0
2016-Jun-25 12:32N 42°53' E 010°31'3 2.5
2016-Jun-25 11:20N 42°56' E 010°33'3 1.8
2016-Jun-25 09:32N 42°53' E 010°31'3 3.4
2016-Jun-25 08:34N 42°56' E 010°34'2 0.9
2016-Jun-25 06:33N 42°54' E 010°32'1 0.7
2016-Jun-25 05:30N 42°55' E 010°33'3 0.3
2016-Jun-24 17:34N 42°52' E 010°31'1 1.1
2016-Jun-24 16:25N 42°53' E 010°32'5 5.4
2016-Jun-24 15:27N 42°49' E 010°27'8 6.5
2016-Jun-24 14:10N 42°56' E 010°33'1 0.7
2016-Jun-24 12:29N 42°55' E 010°33'1 0.7
2016-Jun-24 11:19N 42°56' E 010°33'5 2.8
2016-Jun-24 09:32N 42°52' E 010°29'5 5.2
2016-Jun-24 08:33N 42°56' E 010°34'8 0.5
2016-Jun-23 16:10N 42°49' E 010°27'2 0.9
2016-Jun-23 13:33N 42°51' E 010°29'5 3.9
2016-Jun-23 12:08N 42°56' E 010°33'610.0
2016-Jun-23 11:33N 42°51' E 010°29'2 0.8
2016-Jun-23 09:34N 42°52' E 010°30'4 4.5
2016-Jun-23 08:33N 42°56' E 010°34'0 0.1
2016-Jun-23 05:33N 42°56' E 010°34'8 0.6
2016-Jun-22 16:09N 42°49' E 010°27'8 7.8
2016-Jun-22 15:05N 42°56' E 010°33'5 3.0
2016-Jun-22 13:33N 42°52' E 010°30'1 0.2
2016-Jun-22 08:19N 42°53' E 010°31'4 1.9
2016-Jun-22 06:27N 42°56' E 010°34'0 0.4
2016-Jun-22 05:33N 42°55' E 010°34'8 0.6
2016-Jun-21 16:09N 42°49' E 010°27'812.1
2016-Jun-21 15:30N 42°56' E 010°33'7 7.5
2016-Jun-21 14:33N 42°50' E 010°27'20 9.5
2016-Jun-21 12:30N 42°36' E 010°08'2 2.0
2016-Jun-21 11:33N 42°35' E 010°06'0 0.0
2016-Jun-21 10:33N 42°35' E 010°06'0 0.0
2016-Jun-21 09:33N 42°35' E 010°06'6 5.9
2016-Jun-21 08:31N 42°38' E 010°13'1413.7
2016-Jun-21 07:33N 42°47' E 010°27'6 0.4
2016-Jun-20 17:33N 42°53' E 010°31'1 1.1
2016-Jun-20 16:26N 42°53' E 010°32'5 5.7
2016-Jun-20 15:29N 42°49' E 010°27'8 6.5
2016-Jun-20 14:16N 42°56' E 010°33'2 1.4
2016-Jun-20 12:33N 42°54' E 010°32'2 1.9
2016-Jun-20 11:16N 42°56' E 010°33'4 2.5
2016-Jun-20 09:33N 42°52' E 010°30'5 4.6
2016-Jun-20 08:33N 42°55' E 010°34'  

Dump ship's entire track history